Варзуга

Карта отелей и гостиниц, располагающихся рядом с аэропортом Варзуга :

Варзуга Мурманская область 66° 24' 42.12" N, 36° 35' 39.9588" E
Варзуга Мурманская область 66° 24' 42.12" N, 36° 35' 39.9588" E
Код аэродрома ИКАО
ULMB
Код аэродрома RU
УЛМБ
Координаты
N66.41170° E036.59443°
Превышение над уровнем моря
50
Основная полоса
11/29
Курс магнитный
112/292
Длина основной ВПП
521
Ширина основной ВПП
40
Покрытие основной ВПП
Нетвёрдое (грунт)
Освещение ВПП
Нет
Тип: 
Аэродром
Класс аэродрома: 
Принадлежность: 
ГА
Статус: 
Недействующий
Сайт: 
E-mail аэродрома: 
Страна: 
Россия
Регион: 
Мурманская область
Город: 
Дополнительная информация: 
Мурманская область, Россия. Магнитное склонение +14.2

Найти трансфер

С помощью этой формы Вы можете найти трансфер из аэропорта Варзуга в город, аэропорт или вокзал:

Карта места

Javascript is required to view this map.

Погода в аэропортах:

Авиационная погода в Ботсфьорде

Регион: 
Погода METAR: 
ENBS 241420Z 28005KT 9999 -SHSN FEW016 SCT023 BKN045 M01/M03 Q1012
Время наблюдения
2021-10-24T14:20:00Z
Температура C
-1.0
Точка росы
-3.0
Направление ветра
280
Скорость ветра (узлы)
5
Метео видимость
6.21
Явления погоды
-SHSN
Условия полета
VFR

Авиационная погода в Нижнем Новгороде

Регион: 
Погода METAR: 
UWGG 241700Z 31006MPS 9999 -SHRA OVC010CB 02/01 Q1011 R36R/290050 NOSIG
Время наблюдения
2021-10-24T17:00:00Z
Температура C
2.0
Точка росы
1.0
Направление ветра
310
Скорость ветра (узлы)
12
Метео видимость
6.21
Явления погоды
-SHRA
Условия полета
MVFR
Аэропорт подробнее: 

Авиационная погода в Краснодаре

Регион: 
Погода METAR: 
URKK 241700Z 36005MPS 9999 -SHRA BKN031CB 06/04 Q1024 R05R/290060 TEMPO 2000 TSRA SCT005 BKN020CB RMK QFE765
Время наблюдения
2021-10-24T17:00:00Z
Температура C
6.0
Точка росы
4.0
Направление ветра
360
Скорость ветра (узлы)
10
Метео видимость
6.21
Явления погоды
-SHRA
Условия полета
VFR
Аэропорт подробнее: 

Авиационная погода в Москве - Остафьево

Погода METAR: 
UUMO 241700Z 32006MPS 9000 -SHSN BKN058CB 01/M01 Q1021 RESHSN R25/290050 NOSIG RMK QFE750/1001
Время наблюдения
2021-10-24T17:00:00Z
Температура C
1.0
Точка росы
-1.0
Направление ветра
320
Скорость ветра (узлы)
12
Метео видимость
5.59
Явления погоды
-SHSN
Условия полета
VFR
Аэропорт подробнее: